Time;durP1;ratioP1;P1;durP2;ratioP2;P2;SDS_P1;SDS_P2;PMS_P1;PMS_P2;Temp;Humidity;BMP_temperature;BMP_pressure;BME280_temperature;BME280_humidity;BME280_pressure;Samples;Min_cycle;Max_cycle;Signal;HPM_P1;HPM_P2
2024/01/31 00:02:23;;;;;;;8.73;4.75;;;19.60;47.40;;;;;;8354665;28;20082;-51
2024/01/31 00:06:23;;;;;;;8.88;4.90;;;19.50;47.20;;;;;;8353657;28;20021;-49
2024/01/31 00:10:24;;;;;;;23.85;5.03;;;19.60;47.40;;;;;;8352609;28;20106;-50
2024/01/31 00:14:25;;;;;;;11.32;5.03;;;19.50;47.00;;;;;;8353281;28;20029;-49
2024/01/31 00:18:25;;;;;;;9.65;5.20;;;19.50;47.20;;;;;;8352866;28;20717;-53
2024/01/31 00:22:26;;;;;;;12.15;5.22;;;19.40;47.30;;;;;;8353295;28;20033;-49
2024/01/31 00:26:27;;;;;;;13.07;4.20;;;19.40;47.30;;;;;;8353742;28;20052;-47
2024/01/31 00:30:28;;;;;;;12.50;5.03;;;19.40;47.00;;;;;;8352034;28;20029;-49
2024/01/31 00:34:31;;;;;;;15.77;5.00;;;19.40;47.00;;;;;;8352960;28;20090;-53
2024/01/31 00:38:31;;;;;;;13.65;5.53;;;19.30;46.90;;;;;;8361775;28;20060;-46
2024/01/31 00:42:32;;;;;;;10.10;4.25;;;19.30;46.70;;;;;;8361847;28;20154;-53
2024/01/31 00:46:33;;;;;;;8.05;4.35;;;19.30;46.40;;;;;;8361756;28;20402;-55
2024/01/31 00:50:33;;;;;;;8.82;4.22;;;19.20;46.50;;;;;;8361649;28;20450;-53
2024/01/31 00:54:34;;;;;;;7.15;4.20;;;19.30;46.50;;;;;;8361770;28;20124;-48
2024/01/31 00:58:35;;;;;;;8.00;4.07;;;19.30;47.30;;;;;;8361377;28;20051;-53
2024/01/31 01:02:36;;;;;;;6.25;3.90;;;19.30;46.70;;;;;;8360951;28;20045;-48
2024/01/31 01:06:40;;;;;;;7.13;4.22;;;19.30;46.80;;;;;;8361522;28;20036;-48
2024/01/31 01:10:40;;;;;;;6.75;4.10;;;19.20;46.70;;;;;;8360776;28;20052;-48
2024/01/31 01:14:41;;;;;;;10.25;4.32;;;19.30;48.20;;;;;;8361034;28;20103;-51
2024/01/31 01:18:42;;;;;;;10.13;4.32;;;19.30;48.10;;;;;;8360841;28;20040;-49
2024/01/31 01:22:42;;;;;;;8.10;3.63;;;19.20;48.30;;;;;;8360568;28;20033;-49
2024/01/31 01:26:43;;;;;;;7.55;4.53;;;19.20;47.70;;;;;;8360818;28;20045;-48
2024/01/31 01:30:44;;;;;;;13.48;4.32;;;19.30;47.10;;;;;;8360797;28;20083;-49
2024/01/31 01:34:45;;;;;;;7.45;3.35;;;19.30;47.10;;;;;;8360570;28;20033;-48
2024/01/31 01:38:46;;;;;;;11.90;4.53;;;19.30;47.00;;;;;;8360188;28;20087;-48
2024/01/31 01:42:47;;;;;;;6.63;3.78;;;19.30;46.90;;;;;;8360321;28;20082;-48
2024/01/31 01:46:48;;;;;;;7.22;3.67;;;19.20;46.90;;;;;;8359761;28;20029;-54
2024/01/31 01:50:48;;;;;;;6.45;3.67;;;19.20;46.80;;;;;;8359625;28;20037;-49
2024/01/31 01:54:49;;;;;;;5.40;3.83;;;19.20;47.10;;;;;;8358273;28;20040;-47
2024/01/31 01:58:52;;;;;;;5.55;3.58;;;19.20;47.00;;;;;;8356697;28;20029;-51
2024/01/31 02:02:52;;;;;;;10.10;4.00;;;19.20;46.80;;;;;;8356322;28;20040;-53
2024/01/31 02:06:54;;;;;;;6.78;4.00;;;19.20;46.90;;;;;;8356337;28;20072;-49
2024/01/31 02:10:55;;;;;;;5.60;3.28;;;19.10;47.00;;;;;;8356546;28;20115;-49
2024/01/31 02:14:57;;;;;;;6.93;3.35;;;19.10;47.00;;;;;;8357563;28;20479;-48
2024/01/31 02:18:58;;;;;;;7.97;4.07;;;19.10;47.20;;;;;;8357002;28;20068;-50
2024/01/31 02:22:58;;;;;;;7.82;3.53;;;19.10;47.20;;;;;;8355513;28;20040;-50
2024/01/31 02:26:59;;;;;;;5.95;3.30;;;19.10;47.10;;;;;;8356503;28;20064;-51
2024/01/31 02:31:00;;;;;;;5.40;3.30;;;19.10;47.00;;;;;;8355635;28;20029;-49
2024/01/31 02:35:01;;;;;;;3.83;3.22;;;19.10;47.10;;;;;;8356581;28;20386;-48
2024/01/31 02:39:03;;;;;;;4.70;3.40;;;19.10;47.00;;;;;;8355251;28;20025;-49
2024/01/31 02:43:03;;;;;;;4.88;3.65;;;19.10;46.80;;;;;;8354638;28;20029;-50
2024/01/31 02:47:04;;;;;;;5.38;3.55;;;19.10;46.80;;;;;;8357908;28;20057;-51
2024/01/31 02:51:05;;;;;;;8.90;3.95;;;19.10;46.90;;;;;;8361858;28;20041;-50
2024/01/31 02:55:06;;;;;;;7.05;3.25;;;19.10;46.90;;;;;;8361376;28;20036;-49
2024/01/31 02:59:07;;;;;;;;;;;19.00;46.80;;;;;;8361221;28;20036;-48
2024/01/31 03:03:07;;;;;;;7.97;3.10;;;19.00;46.80;;;;;;8360381;28;19912;-50
2024/01/31 03:07:08;;;;;;;9.07;3.22;;;18.90;46.80;;;;;;8361575;28;20241;-49
2024/01/31 03:11:09;;;;;;;9.55;3.80;;;18.90;46.80;;;;;;8361009;28;20406;-49
2024/01/31 03:15:10;;;;;;;8.43;3.50;;;18.90;46.90;;;;;;8359992;28;20381;-49
2024/01/31 03:19:11;;;;;;;6.57;3.20;;;18.90;46.80;;;;;;8360760;28;20041;-52
2024/01/31 03:23:12;;;;;;;4.38;2.65;;;18.90;46.80;;;;;;8359360;28;20068;-49
2024/01/31 03:27:13;;;;;;;5.75;3.70;;;18.90;46.80;;;;;;8360446;28;20382;-50
2024/01/31 03:31:14;;;;;;;6.20;3.17;;;18.90;46.80;;;;;;8360596;28;20041;-48
2024/01/31 03:35:15;;;;;;;7.13;3.53;;;18.80;46.70;;;;;;8360408;28;20044;-49
2024/01/31 03:39:18;;;;;;;5.38;3.13;;;18.80;46.70;;;;;;8359159;28;20033;-49
2024/01/31 03:43:19;;;;;;;8.10;3.42;;;18.80;46.80;;;;;;8360072;28;20033;-49
2024/01/31 03:47:20;;;;;;;6.90;3.45;;;18.80;46.70;;;;;;8360031;28;20033;-49
2024/01/31 03:51:22;;;;;;;6.93;4.10;;;18.80;46.70;;;;;;8359987;28;20471;-50
2024/01/31 03:55:23;;;;;;;7.05;3.30;;;18.80;46.70;;;;;;8359732;28;20069;-49
2024/01/31 03:59:24;;;;;;;4.45;2.95;;;18.80;46.60;;;;;;8359824;28;20041;-49
2024/01/31 04:03:24;;;;;;;;;;;18.80;46.60;;;;;;8359700;28;20033;-49
2024/01/31 04:07:26;;;;;;;7.10;3.67;;;18.80;46.60;;;;;;8358477;28;19915;-49
2024/01/31 04:11:34;;;;;;;4.68;2.97;;;18.80;46.60;;;;;;8364107;28;20063;-50
2024/01/31 04:15:36;;;;;;;4.20;3.28;;;18.80;46.60;;;;;;8366143;28;20029;-49
2024/01/31 04:19:36;;;;;;;4.65;2.88;;;18.80;46.60;;;;;;8366255;28;20513;-50
2024/01/31 04:23:37;;;;;;;4.47;2.80;;;18.80;46.60;;;;;;8366239;28;20530;-49
2024/01/31 04:27:38;;;;;;;5.25;3.15;;;18.80;46.50;;;;;;8366549;28;20083;-50
2024/01/31 04:31:39;;;;;;;5.38;3.03;;;18.80;46.50;;;;;;8365755;28;20033;-50
2024/01/31 04:35:39;;;;;;;5.47;2.90;;;18.80;46.50;;;;;;8366819;28;20476;-48
2024/01/31 04:39:40;;;;;;;5.00;2.80;;;18.80;46.50;;;;;;8364549;28;20033;-49
2024/01/31 04:43:41;;;;;;;5.93;3.37;;;18.80;46.50;;;;;;8366377;28;20422;-50
2024/01/31 04:47:42;;;;;;;8.00;3.80;;;18.80;46.50;;;;;;8366406;28;20311;-50
2024/01/31 04:51:43;;;;;;;4.85;2.65;;;18.80;46.50;;;;;;8365285;28;20033;-51
2024/01/31 04:55:44;;;;;;;6.40;3.17;;;18.80;46.50;;;;;;8365606;28;20031;-49
2024/01/31 04:59:45;;;;;;;5.85;2.97;;;18.80;46.50;;;;;;8365169;28;20091;-49
2024/01/31 05:03:46;;;;;;;5.25;3.22;;;18.80;46.50;;;;;;8364946;28;20048;-49
2024/01/31 05:07:46;;;;;;;5.18;3.22;;;18.80;46.40;;;;;;8364831;28;20025;-48
2024/01/31 05:11:50;;;;;;;4.93;2.97;;;18.80;46.40;;;;;;8364805;28;20033;-48
2024/01/31 05:15:51;;;;;;;5.72;2.65;;;18.80;46.40;;;;;;8364671;28;20398;-49
2024/01/31 05:19:52;;;;;;;4.93;3.45;;;18.80;46.30;;;;;;8365048;28;20051;-49
2024/01/31 05:23:52;;;;;;;5.53;3.00;;;18.80;46.20;;;;;;8363515;28;20086;-50
2024/01/31 05:27:56;;;;;;;5.10;2.88;;;18.90;46.20;;;;;;8364142;28;20041;-50
2024/01/31 05:31:57;;;;;;;3.72;2.85;;;18.90;46.20;;;;;;8364249;28;20120;-48
2024/01/31 05:35:59;;;;;;;4.95;3.25;;;18.90;46.10;;;;;;8363991;28;20041;-51
2024/01/31 05:39:59;;;;;;;7.63;3.55;;;18.90;46.20;;;;;;8363840;28;20037;-53
2024/01/31 05:44:00;;;;;;;6.82;2.90;;;18.80;46.10;;;;;;8363832;28;20100;-52
2024/01/31 05:48:02;;;;;;;3.78;2.85;;;18.90;46.20;;;;;;8363570;28;20056;-52
2024/01/31 05:52:02;;;;;;;5.05;2.72;;;18.80;46.20;;;;;;8363534;28;20557;-52
2024/01/31 05:56:03;;;;;;;4.25;2.58;;;18.90;46.20;;;;;;8363391;28;20434;-52
2024/01/31 06:00:09;;;;;;;3.78;2.90;;;18.90;46.10;;;;;;8363253;28;20482;-53
2024/01/31 06:04:09;;;;;;;7.25;2.83;;;18.90;46.00;;;;;;8363195;28;20032;-52
2024/01/31 06:08:10;;;;;;;3.33;2.53;;;18.90;46.00;;;;;;8363036;28;20053;-52
2024/01/31 06:12:11;;;;;;;4.25;2.58;;;19.00;45.90;;;;;;8362751;28;20041;-54
2024/01/31 06:16:12;;;;;;;3.83;2.45;;;19.00;45.90;;;;;;8363216;28;20037;-52
2024/01/31 06:20:13;;;;;;;4.60;3.20;;;18.90;45.80;;;;;;8362721;28;20496;-53
2024/01/31 06:24:13;;;;;;;4.63;2.75;;;19.00;45.80;;;;;;8361060;28;20041;-52
2024/01/31 06:28:14;;;;;;;4.50;2.80;;;18.90;45.80;;;;;;8362174;28;20440;-52
2024/01/31 06:32:21;;;;;;;3.20;2.50;;;19.00;45.80;;;;;;8362000;28;20072;-52
2024/01/31 06:36:21;;;;;;;4.75;2.47;;;18.90;45.70;;;;;;8361184;28;20040;-52
2024/01/31 06:40:22;;;;;;;4.05;2.47;;;19.00;45.80;;;;;;8360486;28;20033;-51
2024/01/31 06:44:23;;;;;;;4.50;2.80;;;18.90;45.80;;;;;;8361498;28;20028;-50
2024/01/31 06:48:24;;;;;;;2.90;2.20;;;18.90;45.70;;;;;;8361439;28;20037;-49
2024/01/31 06:52:25;;;;;;;;;;;18.90;45.70;;;;;;8361723;28;20061;-48
2024/01/31 06:56:25;;;;;;;3.90;2.27;;;18.90;45.70;;;;;;8361141;28;20355;-51
2024/01/31 07:00:26;;;;;;;3.33;2.63;;;19.00;45.70;;;;;;8361281;28;20025;-50
2024/01/31 07:04:27;;;;;;;3.42;2.40;;;19.00;45.70;;;;;;8361281;28;20025;-49
2024/01/31 07:08:28;;;;;;;;;;;19.00;45.60;;;;;;8361259;28;20057;-50
2024/01/31 07:12:29;;;;;;;3.80;2.33;;;19.00;45.60;;;;;;8361039;28;19909;-48
2024/01/31 07:16:29;;;;;;;3.72;2.72;;;19.00;45.60;;;;;;8360834;28;20091;-48
2024/01/31 07:20:30;;;;;;;3.10;2.22;;;19.00;45.60;;;;;;8360795;28;20059;-49
2024/01/31 07:24:32;;;;;;;4.60;2.53;;;19.00;45.60;;;;;;8360664;28;20511;-48
2024/01/31 07:28:36;;;;;;;2.53;2.13;;;19.00;45.60;;;;;;8360508;28;20032;-48
2024/01/31 07:32:37;;;;;;;4.25;2.60;;;19.00;45.50;;;;;;8360496;28;20040;-50
2024/01/31 07:36:38;;;;;;;3.00;2.28;;;19.00;45.50;;;;;;8360306;28;20033;-50
2024/01/31 07:40:39;;;;;;;4.18;2.25;;;19.00;45.50;;;;;;8360247;28;20063;-49
2024/01/31 07:44:40;;;;;;;2.70;2.28;;;19.00;45.50;;;;;;8359955;28;20033;-50
2024/01/31 07:48:40;;;;;;;5.15;2.63;;;19.00;45.50;;;;;;8360005;28;20040;-49
2024/01/31 07:52:41;;;;;;;2.63;2.13;;;19.00;45.50;;;;;;8358824;28;20560;-49
2024/01/31 07:56:42;;;;;;;3.17;2.78;;;19.00;45.60;;;;;;8360551;28;20063;-49
2024/01/31 08:00:42;;;;;;;3.25;2.40;;;18.90;45.50;;;;;;8360169;28;20032;-49
2024/01/31 08:04:44;;;;;;;3.38;2.47;;;19.00;45.50;;;;;;8360244;28;20398;-50
2024/01/31 08:08:45;;;;;;;3.20;2.22;;;19.00;45.50;;;;;;8359748;28;20080;-49
2024/01/31 08:12:48;;;;;;;2.85;2.20;;;18.90;45.50;;;;;;8359557;28;20083;-49
2024/01/31 08:16:51;;;;;;;3.03;2.30;;;18.90;45.40;;;;;;8358270;28;20083;-48
2024/01/31 08:20:52;;;;;;;2.92;2.17;;;18.90;45.50;;;;;;8358143;28;20061;-49
2024/01/31 08:24:52;;;;;;;3.40;2.30;;;18.90;45.40;;;;;;8359618;28;20048;-48
2024/01/31 08:28:54;;;;;;;2.63;2.35;;;18.90;45.40;;;;;;8359378;28;20029;-48
2024/01/31 08:32:55;;;;;;;4.43;2.33;;;19.00;45.50;;;;;;8359216;28;20037;-49
2024/01/31 08:36:56;;;;;;;3.30;2.03;;;18.90;45.40;;;;;;8359235;28;20501;-48
2024/01/31 08:40:56;;;;;;;3.35;2.38;;;19.00;45.40;;;;;;8359210;28;20029;-49
2024/01/31 08:44:57;;;;;;;2.65;2.08;;;19.00;45.40;;;;;;8359388;28;20116;-49
2024/01/31 08:48:58;;;;;;;3.85;2.30;;;19.00;45.40;;;;;;8357694;28;20090;-49
2024/01/31 08:52:58;;;;;;;4.10;2.38;;;19.00;45.30;;;;;;8358977;28;20033;-49
2024/01/31 08:56:59;;;;;;;2.17;1.80;;;19.00;45.40;;;;;;8360697;28;20643;-50
2024/01/31 09:01:00;;;;;;;4.18;2.10;;;19.00;45.30;;;;;;8365346;28;20715;-49
2024/01/31 09:05:01;;;;;;;3.15;2.58;;;18.90;45.30;;;;;;8363912;28;20038;-49
2024/01/31 09:09:02;;;;;;;3.60;2.28;;;19.00;45.80;;;;;;8364884;28;20060;-49
2024/01/31 09:13:03;;;;;;;3.53;2.20;;;19.00;45.40;;;;;;8365148;28;20044;-50
2024/01/31 09:17:05;;;;;;;2.00;1.80;;;18.90;45.20;;;;;;8364692;28;20045;-50
2024/01/31 09:21:05;;;;;;;2.58;1.77;;;18.90;45.30;;;;;;8364608;28;20037;-50
2024/01/31 09:25:06;;;;;;;2.45;1.88;;;18.90;45.30;;;;;;8364660;28;20029;-51
2024/01/31 09:29:07;;;;;;;2.65;2.22;;;18.90;45.30;;;;;;8364937;28;20067;-48
2024/01/31 09:33:08;;;;;;;2.60;1.75;;;18.90;45.20;;;;;;8364169;28;20064;-49
2024/01/31 09:37:08;;;;;;;2.35;1.80;;;19.00;45.30;;;;;;8365114;28;20644;-51
2024/01/31 09:41:09;;;;;;;3.20;2.30;;;18.90;45.20;;;;;;8363960;28;20033;-50
2024/01/31 09:45:14;;;;;;;2.65;1.98;;;18.90;45.20;;;;;;8364560;28;20036;-52
2024/01/31 09:49:15;;;;;;;2.83;1.92;;;18.90;45.20;;;;;;8364219;28;20049;-49
2024/01/31 09:53:17;;;;;;;2.55;2.15;;;18.90;45.20;;;;;;8363652;28;20037;-50
2024/01/31 09:57:18;;;;;;;2.63;1.90;;;19.00;45.30;;;;;;8363362;28;20029;-50
2024/01/31 10:01:21;;;;;;;2.63;1.95;;;18.90;45.20;;;;;;8363530;28;20033;-49
2024/01/31 10:05:22;;;;;;;2.63;1.90;;;18.90;45.10;;;;;;8363145;28;20433;-49
2024/01/31 10:09:23;;;;;;;4.38;1.77;;;18.90;45.20;;;;;;8361575;28;20075;-50
2024/01/31 10:13:23;;;;;;;1.90;1.65;;;18.90;45.20;;;;;;8363183;28;20040;-49
2024/01/31 10:17:24;;;;;;;3.00;1.92;;;18.90;45.20;;;;;;8361522;28;20047;-53
2024/01/31 10:21:26;;;;;;;2.67;2.00;;;18.90;45.20;;;;;;8362603;28;20059;-51
2024/01/31 10:25:27;;;;;;;2.70;1.88;;;18.90;45.20;;;;;;8361688;28;20447;-53
2024/01/31 10:29:28;;;;;;;2.30;1.95;;;18.90;45.20;;;;;;8362615;28;20033;-53
2024/01/31 10:33:29;;;;;;;2.35;1.80;;;18.90;45.20;;;;;;8362448;28;20033;-53
2024/01/31 10:37:30;;;;;;;;;;;18.90;45.20;;;;;;8362693;28;20426;-53
2024/01/31 10:41:32;;;;;;;3.28;1.92;;;18.90;45.20;;;;;;8361719;28;20538;-51
2024/01/31 10:45:34;;;;;;;2.17;1.88;;;18.90;45.20;;;;;;8361096;28;20025;-52
2024/01/31 10:49:35;;;;;;;2.50;1.80;;;18.90;45.20;;;;;;8362015;28;20037;-52
2024/01/31 10:53:38;;;;;;;2.25;1.85;;;18.90;45.20;;;;;;8361543;28;20037;-53
2024/01/31 10:57:40;;;;;;;3.55;1.95;;;18.90;45.20;;;;;;8361387;28;20055;-51
2024/01/31 11:01:51;;;;;;;3.22;2.05;;;18.90;45.20;;;;;;8361642;28;20112;-52
2024/01/31 11:05:53;;;;;;;1.95;1.70;;;18.90;45.20;;;;;;8361171;28;20021;-52
2024/01/31 11:09:54;;;;;;;2.67;1.88;;;18.90;45.10;;;;;;8359873;28;20502;-51
2024/01/31 11:13:56;;;;;;;1.75;1.40;;;18.90;45.20;;;;;;8361079;28;20391;-53
2024/01/31 11:18:09;;;;;;;2.95;1.60;;;18.90;45.60;;;;;;8360637;28;20040;-54
2024/01/31 11:22:10;;;;;;;1.70;1.40;;;18.90;45.10;;;;;;8360304;28;20124;-51
2024/01/31 11:26:11;;;;;;;2.97;1.90;;;18.90;45.10;;;;;;8360563;28;20056;-51
2024/01/31 11:30:12;;;;;;;1.92;1.70;;;18.90;45.60;;;;;;8360863;28;20033;-49
2024/01/31 11:34:13;;;;;;;1.95;1.70;;;18.90;45.10;;;;;;8360321;28;20056;-49
2024/01/31 11:38:14;;;;;;;2.03;1.83;;;18.90;45.10;;;;;;8360327;28;20032;-50
2024/01/31 11:42:15;;;;;;;2.35;1.80;;;18.90;45.10;;;;;;8358951;28;20064;-49
2024/01/31 11:46:16;;;;;;;2.10;1.80;;;18.90;45.10;;;;;;8360135;28;20033;-49
2024/01/31 11:50:18;;;;;;;1.50;1.40;;;18.90;45.10;;;;;;8360136;28;20056;-51
2024/01/31 11:54:18;;;;;;;2.78;1.90;;;18.90;45.20;;;;;;8342045;28;20037;-50
2024/01/31 11:58:19;;;;;;;1.55;1.42;;;18.90;45.20;;;;;;8359825;28;20513;-50
2024/01/31 12:02:20;;;;;;;3.60;2.03;;;18.90;45.20;;;;;;8359781;28;20060;-48
2024/01/31 12:06:21;;;;;;;2.08;1.65;;;18.90;45.20;;;;;;8359874;28;20037;-52
2024/01/31 12:10:24;;;;;;;1.90;1.55;;;18.90;45.20;;;;;;8358453;28;20045;-51
2024/01/31 12:14:25;;;;;;;2.28;1.60;;;18.80;45.10;;;;;;8359802;28;20041;-49
2024/01/31 12:18:25;;;;;;;3.03;1.58;;;18.80;45.10;;;;;;8359363;28;20076;-51
2024/01/31 12:22:26;;;;;;;1.75;1.50;;;18.80;45.10;;;;;;8358150;28;20084;-50
2024/01/31 12:26:27;;;;;;;;;;;18.80;45.10;;;;;;8360035;28;20036;-48
2024/01/31 12:30:28;;;;;;;2.20;1.53;;;18.80;45.10;;;;;;8359440;28;19999;-51
2024/01/31 12:34:29;;;;;;;1.98;1.80;;;18.80;45.20;;;;;;8365342;28;20106;-50
2024/01/31 12:38:29;;;;;;;1.85;1.63;;;18.80;45.10;;;;;;8365995;28;20045;-51
2024/01/31 12:42:30;;;;;;;2.03;1.57;;;18.80;45.10;;;;;;8365681;28;20398;-49
2024/01/31 12:46:31;;;;;;;1.60;1.38;;;18.80;45.10;;;;;;8365760;28;20286;-49
2024/01/31 12:50:31;;;;;;;2.83;2.10;;;18.80;45.20;;;;;;8364469;28;20343;-50
2024/01/31 12:54:32;;;;;;;2.20;1.75;;;18.80;45.20;;;;;;8347482;28;20033;-50
2024/01/31 12:58:33;;;;;;;1.92;1.38;;;18.80;45.20;;;;;;8365334;28;20033;-50
2024/01/31 13:02:34;;;;;;;1.50;1.40;;;18.80;45.20;;;;;;8365125;28;20060;-52
2024/01/31 13:06:34;;;;;;;2.58;1.80;;;18.80;45.30;;;;;;8364893;28;20570;-51
2024/01/31 13:10:35;;;;;;;1.65;1.52;;;18.80;45.30;;;;;;8363154;28;20064;-49
2024/01/31 13:14:36;;;;;;;1.65;1.55;;;18.80;45.30;;;;;;8344735;28;20041;-52
2024/01/31 13:18:37;;;;;;;3.40;1.80;;;18.80;45.60;;;;;;8364577;28;20047;-49
2024/01/31 13:22:38;;;;;;;6.45;2.17;;;18.90;46.40;;;;;;8333081;28;20033;-50
2024/01/31 13:26:39;;;;;;;5.28;2.33;;;19.00;47.00;;;;;;8339569;28;20029;-52
2024/01/31 13:30:40;;;;;;;3.08;1.85;;;19.00;47.40;;;;;;8337435;28;20400;-52
2024/01/31 13:34:43;;;;;;;2.63;1.73;;;19.10;47.20;;;;;;8331215;28;20034;-53
2024/01/31 13:38:44;;;;;;;3.10;1.95;;;19.10;47.20;;;;;;8330971;28;20412;-51
2024/01/31 13:42:50;;;;;;;4.05;2.42;;;19.10;47.10;;;;;;8330187;28;20112;-49
2024/01/31 13:46:51;;;;;;;1.98;1.58;;;19.10;47.00;;;;;;8351412;28;20032;-51
2024/01/31 13:50:52;;;;;;;2.25;1.35;;;19.10;46.40;;;;;;8363459;28;20049;-49
2024/01/31 13:54:52;;;;;;;2.92;1.77;;;19.20;46.70;;;;;;8363260;28;20566;-50
2024/01/31 13:58:53;;;;;;;4.00;1.85;;;19.10;46.30;;;;;;8363599;28;20037;-51
2024/01/31 14:02:54;;;;;;;3.28;1.58;;;19.00;46.40;;;;;;8363446;28;20033;-52
2024/01/31 14:06:55;;;;;;;9.35;1.85;;;19.10;46.40;;;;;;8363284;28;20036;-53
2024/01/31 14:10:55;;;;;;;9.70;1.90;;;19.10;46.50;;;;;;8362441;28;20509;-52
2024/01/31 14:14:56;;;;;;;2.75;1.67;;;19.10;46.40;;;;;;8339062;28;20032;-49
2024/01/31 14:18:57;;;;;;;2.00;1.83;;;19.10;46.40;;;;;;8360796;28;20094;-50
2024/01/31 14:22:58;;;;;;;3.30;1.42;;;19.10;46.50;;;;;;8362526;28;20028;-50
2024/01/31 14:26:58;;;;;;;2.55;1.42;;;19.10;46.50;;;;;;8362715;28;20033;-50
2024/01/31 14:30:59;;;;;;;4.07;1.55;;;19.00;46.40;;;;;;8362329;28;20435;-48
2024/01/31 14:35:00;;;;;;;3.45;1.50;;;19.10;46.60;;;;;;8362327;28;20071;-49
2024/01/31 14:39:00;;;;;;;2.67;1.55;;;19.10;46.80;;;;;;8362096;28;20075;-47
2024/01/31 14:43:01;;;;;;;3.47;1.77;;;19.10;46.90;;;;;;8362207;28;20037;-52
2024/01/31 14:47:02;;;;;;;2.42;1.50;;;19.10;46.90;;;;;;8352637;28;20034;-47
2024/01/31 14:51:03;;;;;;;2.85;1.75;;;19.10;46.90;;;;;;8328908;28;20042;-53
2024/01/31 14:55:04;;;;;;;1.55;1.38;;;19.10;47.00;;;;;;8327621;28;20040;-51
2024/01/31 14:59:05;;;;;;;2.97;1.38;;;19.10;46.80;;;;;;8361577;28;20032;-51
2024/01/31 15:03:05;;;;;;;3.75;1.80;;;19.10;46.80;;;;;;8361194;28;20111;-49
2024/01/31 15:07:06;;;;;;;1.48;1.33;;;19.10;46.60;;;;;;8361300;28;20040;-52
2024/01/31 15:11:11;;;;;;;2.47;1.77;;;19.10;46.40;;;;;;8361071;28;20057;-53
2024/01/31 15:15:11;;;;;;;2.17;1.40;;;19.10;46.60;;;;;;8361345;28;20033;-50
2024/01/31 15:19:12;;;;;;;1.50;1.23;;;19.10;46.50;;;;;;8360780;28;20076;-51
2024/01/31 15:23:13;;;;;;;2.10;1.42;;;19.10;46.40;;;;;;8360664;28;20029;-52
2024/01/31 15:27:17;;;;;;;1.30;1.20;;;19.00;46.30;;;;;;8360831;28;20510;-51
2024/01/31 15:31:21;;;;;;;2.13;1.42;;;18.90;46.20;;;;;;8360734;28;20041;-52
2024/01/31 15:35:22;;;;;;;1.70;1.40;;;18.90;46.20;;;;;;8360486;28;20167;-50
2024/01/31 15:39:23;;;;;;;2.28;1.50;;;18.90;46.20;;;;;;8360408;28;20037;-51
2024/01/31 15:43:23;;;;;;;1.92;1.55;;;18.90;46.30;;;;;;8360983;28;20535;-51
2024/01/31 15:47:24;;;;;;;1.73;1.30;;;18.90;46.50;;;;;;8360208;28;20698;-53
2024/01/31 15:51:25;;;;;;;3.33;1.48;;;18.90;46.60;;;;;;8360051;28;20143;-50
2024/01/31 15:55:25;;;;;;;1.40;1.30;;;18.90;46.50;;;;;;8360133;28;20128;-53
2024/01/31 15:59:29;;;;;;;1.20;1.10;;;18.90;46.40;;;;;;8359962;28;20033;-52
2024/01/31 16:03:29;;;;;;;2.42;1.70;;;18.90;46.40;;;;;;8360105;28;20028;-52
2024/01/31 16:07:30;;;;;;;1.98;1.42;;;18.90;46.30;;;;;;8359586;28;20119;-50
2024/01/31 16:11:31;;;;;;;2.88;1.63;;;18.90;46.30;;;;;;8358489;28;20407;-49
2024/01/31 16:15:31;;;;;;;3.20;1.40;;;18.90;46.40;;;;;;8358742;28;20443;-49
2024/01/31 16:19:32;;;;;;;1.65;1.33;;;18.90;46.40;;;;;;8358472;28;20041;-48
2024/01/31 16:23:33;;;;;;;1.38;1.27;;;18.90;46.30;;;;;;8359524;28;20029;-49
2024/01/31 16:27:36;;;;;;;2.78;1.30;;;18.90;46.30;;;;;;8359428;28;20029;-49
2024/01/31 16:31:41;;;;;;;1.55;1.30;;;18.90;46.20;;;;;;8359505;28;20043;-48
2024/01/31 16:35:42;;;;;;;1.25;1.15;;;18.80;46.20;;;;;;8359287;28;20029;-49
2024/01/31 16:39:43;;;;;;;1.73;1.35;;;18.80;46.20;;;;;;8360226;28;20029;-50
2024/01/31 16:43:44;;;;;;;1.75;1.30;;;18.80;46.10;;;;;;8359226;28;20036;-49
2024/01/31 16:47:45;;;;;;;2.42;1.20;;;18.80;46.20;;;;;;8359639;28;20029;-48
2024/01/31 16:51:46;;;;;;;1.20;1.10;;;18.80;46.10;;;;;;8359175;28;20389;-49
2024/01/31 16:55:47;;;;;;;1.38;1.27;;;18.80;46.20;;;;;;8358878;28;20029;-49
2024/01/31 16:59:48;;;;;;;1.50;1.30;;;18.80;46.10;;;;;;8341302;28;20108;-49
2024/01/31 17:03:48;;;;;;;1.77;1.48;;;18.80;46.00;;;;;;8359283;28;20029;-49
2024/01/31 17:07:49;;;;;;;1.48;1.10;;;18.80;46.10;;;;;;8358586;28;20033;-49
2024/01/31 17:11:51;;;;;;;1.92;1.50;;;18.80;46.10;;;;;;8357428;28;20044;-48
2024/01/31 17:15:52;;;;;;;1.48;1.30;;;18.80;46.10;;;;;;8358853;28;20033;-48
2024/01/31 17:19:53;;;;;;;1.95;1.50;;;18.80;46.10;;;;;;8363913;28;20053;-49
2024/01/31 17:23:53;;;;;;;2.08;1.25;;;18.80;46.10;;;;;;8364604;28;20051;-47
2024/01/31 17:27:54;;;;;;;1.88;1.42;;;18.80;46.10;;;;;;8364246;28;20498;-48
2024/01/31 17:31:57;;;;;;;1.35;1.20;;;18.80;46.10;;;;;;8364470;28;20029;-48
2024/01/31 17:35:58;;;;;;;1.35;1.00;;;18.80;46.00;;;;;;8364313;28;20040;-48
2024/01/31 17:39:59;;;;;;;1.23;1.10;;;18.80;46.00;;;;;;8364100;28;20111;-50
2024/01/31 17:44:00;;;;;;;2.28;1.52;;;18.80;46.00;;;;;;8363924;28;20082;-49
2024/01/31 17:48:00;;;;;;;1.65;1.10;;;18.80;46.00;;;;;;8364064;28;20036;-48
2024/01/31 17:52:01;;;;;;;1.65;1.52;;;18.80;46.00;;;;;;8363873;28;20045;-49
2024/01/31 17:56:04;;;;;;;1.20;1.10;;;18.70;45.90;;;;;;8362145;28;20140;-48
2024/01/31 18:00:07;;;;;;;1.67;1.30;;;18.80;46.00;;;;;;8363556;28;20032;-49
2024/01/31 18:04:08;;;;;;;1.20;1.10;;;18.70;46.00;;;;;;8363324;28;20509;-52
2024/01/31 18:08:09;;;;;;;1.45;1.20;;;18.70;46.00;;;;;;8363115;28;20041;-50
2024/01/31 18:12:12;;;;;;;1.15;1.00;;;18.70;46.00;;;;;;8362805;28;20418;-50
2024/01/31 18:16:13;;;;;;;1.92;1.20;;;18.80;46.00;;;;;;8362938;28;20080;-51
2024/01/31 18:20:14;;;;;;;2.95;1.08;;;18.80;46.00;;;;;;8363023;28;20037;-50
2024/01/31 18:24:15;;;;;;;;;;;18.80;46.00;;;;;;8363073;28;20096;-47
2024/01/31 18:28:15;;;;;;;1.53;0.90;;;18.80;46.00;;;;;;8362300;28;20367;-49
2024/01/31 18:32:21;;;;;;;1.85;1.25;;;18.80;46.00;;;;;;8362440;28;20501;-52
2024/01/31 18:36:22;;;;;;;1.40;1.20;;;18.80;45.80;;;;;;8362320;28;20025;-50
2024/01/31 18:40:23;;;;;;;1.30;1.20;;;18.80;45.80;;;;;;8362118;28;20052;-50
2024/01/31 18:44:24;;;;;;;1.65;1.25;;;18.80;45.80;;;;;;8361990;28;20041;-53
2024/01/31 18:48:24;;;;;;;1.25;1.15;;;18.80;45.80;;;;;;8362018;28;20071;-50
2024/01/31 18:52:25;;;;;;;1.48;1.20;;;18.80;45.80;;;;;;8361683;28;20502;-50
2024/01/31 18:56:26;;;;;;;1.08;0.98;;;18.80;45.90;;;;;;8361580;28;20536;-50
2024/01/31 19:00:26;;;;;;;1.23;1.10;;;18.80;45.80;;;;;;8361501;28;20037;-50
2024/01/31 19:04:27;;;;;;;1.63;1.00;;;18.80;45.80;;;;;;8361342;28;20041;-50
2024/01/31 19:08:28;;;;;;;1.20;1.10;;;18.80;45.70;;;;;;8359674;28;20048;-51
2024/01/31 19:12:29;;;;;;;1.30;1.00;;;18.80;45.70;;;;;;8361125;28;20124;-50
2024/01/31 19:16:30;;;;;;;1.40;1.15;;;18.80;45.70;;;;;;8361031;28;20036;-48
2024/01/31 19:20:30;;;;;;;1.33;1.23;;;18.80;45.70;;;;;;8360825;28;20482;-50
2024/01/31 19:24:33;;;;;;;1.60;1.25;;;18.80;45.80;;;;;;8360890;28;20033;-53
2024/01/31 19:28:34;;;;;;;1.48;1.33;;;18.80;45.80;;;;;;8360675;28;20044;-50
2024/01/31 19:32:35;;;;;;;2.53;1.25;;;18.80;45.70;;;;;;8360494;28;20083;-50
2024/01/31 19:36:35;;;;;;;1.40;1.30;;;18.80;45.70;;;;;;8360625;28;20037;-52
2024/01/31 19:40:36;;;;;;;1.10;1.00;;;18.80;45.60;;;;;;8359582;28;20021;-50
2024/01/31 19:44:37;;;;;;;1.02;0.95;;;18.80;45.60;;;;;;8360283;28;20030;-50
2024/01/31 19:48:38;;;;;;;1.40;1.05;;;18.80;45.60;;;;;;8360638;28;20041;-51
2024/01/31 19:52:38;;;;;;;1.42;1.33;;;18.80;45.70;;;;;;8360024;28;20106;-51
2024/01/31 19:56:39;;;;;;;2.50;1.35;;;18.80;45.70;;;;;;8359641;28;20033;-51
2024/01/31 20:00:40;;;;;;;1.25;1.00;;;18.80;45.70;;;;;;8359902;28;20033;-51
2024/01/31 20:04:40;;;;;;;1.30;1.20;;;18.80;45.70;;;;;;8358546;28;20074;-51
2024/01/31 20:08:41;;;;;;;1.33;1.20;;;18.80;45.70;;;;;;8359845;28;20222;-52
2024/01/31 20:12:42;;;;;;;1.05;0.98;;;18.80;45.70;;;;;;8359520;28;20462;-52
2024/01/31 20:16:42;;;;;;;1.23;0.90;;;18.80;45.60;;;;;;8358396;28;20043;-53
2024/01/31 20:20:45;;;;;;;1.40;1.05;;;18.80;45.60;;;;;;8358522;28;20029;-52
2024/01/31 20:24:45;;;;;;;1.48;0.98;;;18.80;45.70;;;;;;8359839;28;20494;-50
2024/01/31 20:28:46;;;;;;;1.50;1.10;;;18.80;46.20;;;;;;8359192;28;20099;-51
2024/01/31 20:32:47;;;;;;;1.40;1.17;;;18.80;45.70;;;;;;8357966;28;20099;-50
2024/01/31 20:36:48;;;;;;;1.98;1.25;;;18.80;45.70;;;;;;8359525;28;20060;-52
2024/01/31 20:40:49;;;;;;;1.02;1.00;;;18.80;45.60;;;;;;8358913;28;20486;-52
2024/01/31 20:44:49;;;;;;;1.33;1.23;;;18.80;45.60;;;;;;8359005;28;20032;-52
2024/01/31 20:48:50;;;;;;;2.03;1.10;;;18.80;45.60;;;;;;8359144;28;20041;-49
2024/01/31 20:52:51;;;;;;;1.23;1.13;;;18.80;45.60;;;;;;8360569;28;20295;-49
2024/01/31 20:56:51;;;;;;;1.67;1.17;;;18.80;45.60;;;;;;8365308;28;20041;-49